sensor_id;sensor_type;location;lat;lon;timestamp;pressure;altitude;pressure_sealevel;temperature;humidity
33506;BME280;19843;51.040;13.782;2023-02-19T00:00:56;100235.00;;;10.56;86.04
33506;BME280;19843;51.040;13.782;2023-02-19T00:03:23;100232.75;;;10.62;85.92
33506;BME280;19843;51.040;13.782;2023-02-19T00:05:51;100231.47;;;10.68;85.63
33506;BME280;19843;51.040;13.782;2023-02-19T00:08:18;100226.44;;;10.63;85.59
33506;BME280;19843;51.040;13.782;2023-02-19T00:10:45;100229.44;;;10.59;85.30
33506;BME280;19843;51.040;13.782;2023-02-19T00:13:13;100223.09;;;10.60;85.24
33506;BME280;19843;51.040;13.782;2023-02-19T00:15:40;100229.31;;;10.60;85.41
33506;BME280;19843;51.040;13.782;2023-02-19T00:18:09;100229.13;;;10.63;85.22
33506;BME280;19843;51.040;13.782;2023-02-19T00:20:36;100223.84;;;10.62;84.89
33506;BME280;19843;51.040;13.782;2023-02-19T00:23:03;100220.09;;;10.64;84.50
33506;BME280;19843;51.040;13.782;2023-02-19T00:25:30;100219.91;;;10.68;84.75
33506;BME280;19843;51.040;13.782;2023-02-19T00:27:58;100219.91;;;10.68;84.88
33506;BME280;19843;51.040;13.782;2023-02-19T00:30:25;100221.19;;;10.75;84.34
33506;BME280;19843;51.040;13.782;2023-02-19T00:32:52;100215.38;;;10.68;84.61
33506;BME280;19843;51.040;13.782;2023-02-19T00:35:21;100225.25;;;10.55;85.21
33506;BME280;19843;51.040;13.782;2023-02-19T00:37:49;100215.19;;;10.58;84.78
33506;BME280;19843;51.040;13.782;2023-02-19T00:40:16;100220.53;;;10.71;84.31
33506;BME280;19843;51.040;13.782;2023-02-19T00:42:43;100214.09;;;10.61;84.94
33506;BME280;19843;51.040;13.782;2023-02-19T00:45:11;100202.50;;;10.60;84.91
33506;BME280;19843;51.040;13.782;2023-02-19T00:47:38;100213.03;;;10.63;85.19
33506;BME280;19843;51.040;13.782;2023-02-19T00:50:05;100202.41;;;10.62;84.94
33506;BME280;19843;51.040;13.782;2023-02-19T00:52:34;100206.16;;;10.59;85.05
33506;BME280;19843;51.040;13.782;2023-02-19T00:55:02;100213.53;;;10.56;85.38
33506;BME280;19843;51.040;13.782;2023-02-19T00:57:29;100205.09;;;10.49;85.65
33506;BME280;19843;51.040;13.782;2023-02-19T00:59:56;100197.16;;;10.48;85.64
33506;BME280;19843;51.040;13.782;2023-02-19T01:02:24;100198.34;;;10.43;85.26
33506;BME280;19843;51.040;13.782;2023-02-19T01:04:51;100194.25;;;10.51;84.82
33506;BME280;19843;51.040;13.782;2023-02-19T01:07:19;100194.59;;;10.59;84.86
33506;BME280;19843;51.040;13.782;2023-02-19T01:09:47;100193.63;;;10.47;85.22
33506;BME280;19843;51.040;13.782;2023-02-19T01:12:15;100193.63;;;10.47;85.28
33506;BME280;19843;51.040;13.782;2023-02-19T01:14:42;100180.53;;;10.55;85.00
33506;BME280;19843;51.040;13.782;2023-02-19T01:17:10;100174.13;;;10.45;84.94
33506;BME280;19843;51.040;13.782;2023-02-19T01:19:37;100179.16;;;10.50;84.63
33506;BME280;19843;51.040;13.782;2023-02-19T01:22:04;100156.84;;;10.36;85.27
33506;BME280;19843;51.040;13.782;2023-02-19T01:24:31;100161.34;;;10.49;84.92
33506;BME280;19843;51.040;13.782;2023-02-19T01:27:00;100152.13;;;10.53;84.79
33506;BME280;19843;51.040;13.782;2023-02-19T01:29:27;100160.91;;;10.42;84.76
33506;BME280;19843;51.040;13.782;2023-02-19T01:31:55;100157.38;;;10.41;85.03
33506;BME280;19843;51.040;13.782;2023-02-19T01:34:22;100158.78;;;10.47;84.79
33506;BME280;19843;51.040;13.782;2023-02-19T01:36:52;100145.56;;;10.44;85.52
33506;BME280;19843;51.040;13.782;2023-02-19T01:39:19;100137.72;;;10.28;86.42
33506;BME280;19843;51.040;13.782;2023-02-19T01:41:46;100126.72;;;10.45;86.12
33506;BME280;19843;51.040;13.782;2023-02-19T01:47:01;100116.09;;;10.44;87.35
33506;BME280;19843;51.040;13.782;2023-02-19T01:49:29;100118.47;;;10.36;88.98
33506;BME280;19843;51.040;13.782;2023-02-19T01:51:58;100118.34;;;10.24;90.95
33506;BME280;19843;51.040;13.782;2023-02-19T01:54:27;100120.59;;;10.18;91.93
33506;BME280;19843;51.040;13.782;2023-02-19T01:56:55;100115.84;;;10.21;92.51
33506;BME280;19843;51.040;13.782;2023-02-19T01:59:23;100109.00;;;10.04;93.71
33506;BME280;19843;51.040;13.782;2023-02-19T02:01:50;100107.28;;;10.03;93.95
33506;BME280;19843;51.040;13.782;2023-02-19T02:04:19;100116.63;;;9.98;94.70
33506;BME280;19843;51.040;13.782;2023-02-19T02:06:48;100106.84;;;10.10;94.87
33506;BME280;19843;51.040;13.782;2023-02-19T02:09:16;100111.38;;;10.09;94.90
33506;BME280;19843;51.040;13.782;2023-02-19T02:12:02;100093.34;;;9.98;95.71
33506;BME280;19843;51.040;13.782;2023-02-19T02:14:30;100105.25;;;10.07;95.60
33506;BME280;19843;51.040;13.782;2023-02-19T02:17:00;100099.13;;;9.79;96.72
33506;BME280;19843;51.040;13.782;2023-02-19T02:19:40;100097.44;;;9.91;97.03
33506;BME280;19843;51.040;13.782;2023-02-19T02:22:13;100093.34;;;9.98;97.16
33506;BME280;19843;51.040;13.782;2023-02-19T02:25:04;100089.72;;;9.87;97.68
33506;BME280;19843;51.040;13.782;2023-02-19T02:27:47;100087.66;;;9.77;99.01
33506;BME280;19843;51.040;13.782;2023-02-19T02:30:22;100081.88;;;9.71;99.04
33506;BME280;19843;51.040;13.782;2023-02-19T02:32:53;100079.97;;;9.73;99.73
33506;BME280;19843;51.040;13.782;2023-02-19T02:35:23;100086.06;;;9.75;99.87
33506;BME280;19843;51.040;13.782;2023-02-19T02:37:51;100082.22;;;9.79;99.71
33506;BME280;19843;51.040;13.782;2023-02-19T02:40:21;100074.44;;;9.49;100.00
33506;BME280;19843;51.040;13.782;2023-02-19T02:42:49;100060.56;;;9.56;100.00
33506;BME280;19843;51.040;13.782;2023-02-19T02:45:25;100066.53;;;9.60;100.00
33506;BME280;19843;51.040;13.782;2023-02-19T02:48:05;100070.59;;;9.53;100.00
33506;BME280;19843;51.040;13.782;2023-02-19T02:50:35;100057.97;;;9.55;100.00
33506;BME280;19843;51.040;13.782;2023-02-19T02:53:06;100062.91;;;9.61;100.00
33506;BME280;19843;51.040;13.782;2023-02-19T02:55:52;100053.50;;;9.68;100.00
33506;BME280;19843;51.040;13.782;2023-02-19T02:58:21;100050.06;;;9.66;100.00
33506;BME280;19843;51.040;13.782;2023-02-19T03:00:51;100046.09;;;9.59;100.00
33506;BME280;19843;51.040;13.782;2023-02-19T03:03:40;100040.44;;;9.64;100.00
33506;BME280;19843;51.040;13.782;2023-02-19T03:06:08;100019.34;;;9.59;100.00
33506;BME280;19843;51.040;13.782;2023-02-19T03:08:38;100033.22;;;9.51;100.00
33506;BME280;19843;51.040;13.782;2023-02-19T03:11:08;100035.28;;;9.48;100.00
33506;BME280;19843;51.040;13.782;2023-02-19T03:13:55;100030.03;;;9.59;100.00
33506;BME280;19843;51.040;13.782;2023-02-19T03:16:44;100029.91;;;9.60;100.00
33506;BME280;19843;51.040;13.782;2023-02-19T03:19:30;100025.63;;;9.45;100.00
33506;BME280;19843;51.040;13.782;2023-02-19T03:22:02;100022.44;;;9.53;100.00
33506;BME280;19843;51.040;13.782;2023-02-19T03:24:37;100023.31;;;9.66;100.00
33506;BME280;19843;51.040;13.782;2023-02-19T03:27:25;100007.13;;;9.55;100.00
33506;BME280;19843;51.040;13.782;2023-02-19T03:29:53;100013.13;;;9.46;100.00
33506;BME280;19843;51.040;13.782;2023-02-19T03:32:26;100005.94;;;9.46;100.00
33506;BME280;19843;51.040;13.782;2023-02-19T03:34:56;100012.25;;;9.45;100.00
33506;BME280;19843;51.040;13.782;2023-02-19T03:37:27;100010.22;;;9.49;100.00
33506;BME280;19843;51.040;13.782;2023-02-19T03:39:55;100005.84;;;9.48;100.00
33506;BME280;19843;51.040;13.782;2023-02-19T03:42:26;100002.31;;;9.60;100.00
33506;BME280;19843;51.040;13.782;2023-02-19T03:47:41;100008.63;;;9.59;100.00
33506;BME280;19843;51.040;13.782;2023-02-19T03:50:16;100000.78;;;9.56;100.00
33506;BME280;19843;51.040;13.782;2023-02-19T03:52:46;99993.31;;;9.48;100.00
33506;BME280;19843;51.040;13.782;2023-02-19T03:55:19;99989.13;;;9.57;100.00
33506;BME280;19843;51.040;13.782;2023-02-19T03:57:52;99992.03;;;9.54;100.00
33506;BME280;19843;51.040;13.782;2023-02-19T04:00:21;99977.91;;;9.52;100.00
33506;BME280;19843;51.040;13.782;2023-02-19T04:02:53;99972.13;;;9.45;100.00
33506;BME280;19843;51.040;13.782;2023-02-19T04:05:23;99969.44;;;9.45;100.00
33506;BME280;19843;51.040;13.782;2023-02-19T04:07:52;99974.13;;;9.41;100.00
33506;BME280;19843;51.040;13.782;2023-02-19T04:10:21;99971.91;;;9.48;100.00
33506;BME280;19843;51.040;13.782;2023-02-19T04:12:50;99967.53;;;9.47;100.00
33506;BME280;19843;51.040;13.782;2023-02-19T04:15:20;99973.41;;;9.52;100.00
33506;BME280;19843;51.040;13.782;2023-02-19T04:17:49;99959.69;;;9.44;100.00
33506;BME280;19843;51.040;13.782;2023-02-19T04:20:20;99967.41;;;9.49;100.00
33506;BME280;19843;51.040;13.782;2023-02-19T04:22:48;99967.41;;;9.49;100.00
33506;BME280;19843;51.040;13.782;2023-02-19T04:25:16;99966.84;;;9.31;100.00
33506;BME280;19843;51.040;13.782;2023-02-19T04:27:43;99965.81;;;9.33;100.00
33506;BME280;19843;51.040;13.782;2023-02-19T04:30:12;99951.22;;;9.37;100.00
33506;BME280;19843;51.040;13.782;2023-02-19T04:32:39;99950.91;;;9.42;100.00
33506;BME280;19843;51.040;13.782;2023-02-19T04:35:07;99958.84;;;9.44;100.00
33506;BME280;19843;51.040;13.782;2023-02-19T04:37:36;99946.44;;;9.43;100.00
33506;BME280;19843;51.040;13.782;2023-02-19T04:40:03;99957.88;;;9.32;100.00
33506;BME280;19843;51.040;13.782;2023-02-19T04:42:31;99948.66;;;9.49;100.00
33506;BME280;19843;51.040;13.782;2023-02-19T04:44:58;99945.69;;;9.40;100.00
33506;BME280;19843;51.040;13.782;2023-02-19T04:47:26;99944.72;;;9.41;100.00
33506;BME280;19843;51.040;13.782;2023-02-19T04:49:53;99941.28;;;9.52;100.00
33506;BME280;19843;51.040;13.782;2023-02-19T04:52:20;99923.94;;;9.32;100.00
33506;BME280;19843;51.040;13.782;2023-02-19T04:54:49;99914.97;;;9.33;100.00
33506;BME280;19843;51.040;13.782;2023-02-19T04:57:16;99916.56;;;9.36;100.00
33506;BME280;19843;51.040;13.782;2023-02-19T04:59:44;99921.91;;;9.36;100.00
33506;BME280;19843;51.040;13.782;2023-02-19T05:02:12;99931.22;;;9.30;100.00
33506;BME280;19843;51.040;13.782;2023-02-19T05:04:39;99937.75;;;9.39;100.00
33506;BME280;19843;51.040;13.782;2023-02-19T05:07:07;99943.44;;;9.34;100.00
33506;BME280;19843;51.040;13.782;2023-02-19T05:09:34;99949.84;;;9.45;100.00
33506;BME280;19843;51.040;13.782;2023-02-19T05:12:03;99938.28;;;9.31;100.00
33506;BME280;19843;51.040;13.782;2023-02-19T05:14:30;99934.88;;;9.29;100.00
33506;BME280;19843;51.040;13.782;2023-02-19T05:16:58;99945.00;;;9.24;100.00
33506;BME280;19843;51.040;13.782;2023-02-19T05:19:25;99961.06;;;9.11;100.00
33506;BME280;19843;51.040;13.782;2023-02-19T05:21:52;99962.00;;;9.10;100.00
33506;BME280;19843;51.040;13.782;2023-02-19T05:24:20;99960.34;;;9.22;100.00
33506;BME280;19843;51.040;13.782;2023-02-19T05:26:49;99956.47;;;9.13;100.00
33506;BME280;19843;51.040;13.782;2023-02-19T05:29:18;99953.25;;;9.21;100.00
33506;BME280;19843;51.040;13.782;2023-02-19T05:31:45;99954.75;;;9.25;100.00
33506;BME280;19843;51.040;13.782;2023-02-19T05:34:13;99951.31;;;9.23;100.00
33506;BME280;19843;51.040;13.782;2023-02-19T05:36:41;99955.69;;;9.24;100.00
33506;BME280;19843;51.040;13.782;2023-02-19T05:39:09;99959.03;;;9.28;100.00
33506;BME280;19843;51.040;13.782;2023-02-19T05:41:37;99961.38;;;9.07;100.00
33506;BME280;19843;51.040;13.782;2023-02-19T05:44:05;99968.88;;;9.14;100.00
33506;BME280;19843;51.040;13.782;2023-02-19T05:46:33;99959.00;;;9.15;100.00
33506;BME280;19843;51.040;13.782;2023-02-19T05:49:01;99953.66;;;9.15;100.00
33506;BME280;19843;51.040;13.782;2023-02-19T05:51:28;99955.72;;;9.11;100.00
33506;BME280;19843;51.040;13.782;2023-02-19T05:53:56;99956.34;;;9.15;100.00
33506;BME280;19843;51.040;13.782;2023-02-19T05:56:26;99960.75;;;9.16;100.00
33506;BME280;19843;51.040;13.782;2023-02-19T05:58:56;99963.31;;;9.17;100.00
33506;BME280;19843;51.040;13.782;2023-02-19T06:01:25;99961.38;;;9.07;100.00
33506;BME280;19843;51.040;13.782;2023-02-19T06:03:54;99966.72;;;9.07;100.00
33506;BME280;19843;51.040;13.782;2023-02-19T06:06:23;99989.28;;;9.03;100.00
33506;BME280;19843;51.040;13.782;2023-02-19T06:08:50;99984.59;;;9.06;100.00
33506;BME280;19843;51.040;13.782;2023-02-19T06:11:18;99977.72;;;9.02;100.00
33506;BME280;19843;51.040;13.782;2023-02-19T06:13:45;99980.28;;;9.04;100.00
33506;BME280;19843;51.040;13.782;2023-02-19T06:16:14;99981.28;;;9.15;100.00
33506;BME280;19843;51.040;13.782;2023-02-19T06:18:42;99988.13;;;9.07;100.00
33506;BME280;19843;51.040;13.782;2023-02-19T06:21:11;99995.16;;;9.08;100.00
33506;BME280;19843;51.040;13.782;2023-02-19T06:23:39;99997.13;;;9.18;100.00
33506;BME280;19843;51.040;13.782;2023-02-19T06:26:07;100006.97;;;9.18;100.00
33506;BME280;19843;51.040;13.782;2023-02-19T06:28:35;100000.47;;;9.22;100.00
33506;BME280;19843;51.040;13.782;2023-02-19T06:31:02;100009.78;;;9.29;100.00
33506;BME280;19843;51.040;13.782;2023-02-19T06:33:30;100004.31;;;9.31;100.00
33506;BME280;19843;51.040;13.782;2023-02-19T06:35:58;100009.22;;;9.24;100.00
33506;BME280;19843;51.040;13.782;2023-02-19T06:38:27;100012.94;;;9.22;100.00
33506;BME280;19843;51.040;13.782;2023-02-19T06:40:58;100019.72;;;9.27;100.00
33506;BME280;19843;51.040;13.782;2023-02-19T06:43:25;100011.28;;;9.33;100.00
33506;BME280;19843;51.040;13.782;2023-02-19T06:45:53;100018.13;;;9.37;100.00
33506;BME280;19843;51.040;13.782;2023-02-19T06:48:20;100012.56;;;9.40;100.00
33506;BME280;19843;51.040;13.782;2023-02-19T06:50:47;100024.09;;;9.28;100.00
33506;BME280;19843;51.040;13.782;2023-02-19T06:53:15;100019.31;;;9.33;100.00
33506;BME280;19843;51.040;13.782;2023-02-19T06:55:43;100023.56;;;9.23;100.00
33506;BME280;19843;51.040;13.782;2023-02-19T06:58:11;100025.59;;;9.32;100.00
33506;BME280;19843;51.040;13.782;2023-02-19T07:00:38;100024.13;;;9.41;100.00
33506;BME280;19843;51.040;13.782;2023-02-19T07:03:05;100028.38;;;9.31;100.00
33506;BME280;19843;51.040;13.782;2023-02-19T07:05:33;100038.44;;;9.27;100.00
33506;BME280;19843;51.040;13.782;2023-02-19T07:08:00;100039.53;;;9.37;100.00
33506;BME280;19843;51.040;13.782;2023-02-19T07:10:27;100046.59;;;9.38;100.00
33506;BME280;19843;51.040;13.782;2023-02-19T07:12:56;100048.31;;;9.39;100.00
33506;BME280;19843;51.040;13.782;2023-02-19T07:15:23;100055.69;;;9.36;100.00
33506;BME280;19843;51.040;13.782;2023-02-19T07:17:51;100062.53;;;9.40;100.00
33506;BME280;19843;51.040;13.782;2023-02-19T07:20:18;100063.28;;;9.29;100.00
33506;BME280;19843;51.040;13.782;2023-02-19T07:22:45;100068.78;;;9.40;100.00
33506;BME280;19843;51.040;13.782;2023-02-19T07:25:12;100070.78;;;9.37;100.00
33506;BME280;19843;51.040;13.782;2023-02-19T07:27:40;100072.81;;;9.33;100.00
33506;BME280;19843;51.040;13.782;2023-02-19T07:30:09;100073.47;;;9.37;100.00
33506;BME280;19843;51.040;13.782;2023-02-19T07:32:39;100076.66;;;9.29;100.00
33506;BME280;19843;51.040;13.782;2023-02-19T07:35:06;100092.72;;;9.29;100.00
33506;BME280;19843;51.040;13.782;2023-02-19T07:37:34;100104.47;;;9.27;100.00
33506;BME280;19843;51.040;13.782;2023-02-19T07:40:02;100123.69;;;8.92;100.00
33506;BME280;19843;51.040;13.782;2023-02-19T07:42:29;100125.41;;;8.78;99.26
33506;BME280;19843;51.040;13.782;2023-02-19T07:44:56;100131.94;;;8.74;98.33
33506;BME280;19843;51.040;13.782;2023-02-19T07:47:27;100136.16;;;8.64;99.72
33506;BME280;19843;51.040;13.782;2023-02-19T07:49:54;100146.53;;;8.40;99.68
33506;BME280;19843;51.040;13.782;2023-02-19T07:52:22;100156.47;;;8.38;100.00
33506;BME280;19843;51.040;13.782;2023-02-19T07:54:49;100152.81;;;8.39;100.00
33506;BME280;19843;51.040;13.782;2023-02-19T07:57:16;100169.16;;;8.49;100.00
33506;BME280;19843;51.040;13.782;2023-02-19T07:59:44;100171.03;;;8.32;100.00
33506;BME280;19843;51.040;13.782;2023-02-19T08:02:13;100173.41;;;8.23;100.00
33506;BME280;19843;51.040;13.782;2023-02-19T08:05:00;100177.34;;;8.31;99.52
33506;BME280;19843;51.040;13.782;2023-02-19T08:07:31;100179.91;;;8.33;99.08
33506;BME280;19843;51.040;13.782;2023-02-19T08:09:58;100183.34;;;8.35;99.55
33506;BME280;19843;51.040;13.782;2023-02-19T08:12:40;100201.50;;;8.44;100.00
33506;BME280;19843;51.040;13.782;2023-02-19T08:15:25;100210.09;;;8.05;100.00
33506;BME280;19843;51.040;13.782;2023-02-19T08:17:52;100206.81;;;8.15;100.00
33506;BME280;19843;51.040;13.782;2023-02-19T08:20:21;100210.19;;;8.03;100.00
33506;BME280;19843;51.040;13.782;2023-02-19T08:22:48;100215.66;;;8.02;99.82
33506;BME280;19843;51.040;13.782;2023-02-19T08:25:16;100221.34;;;7.95;99.65
33506;BME280;19843;51.040;13.782;2023-02-19T08:27:43;100226.44;;;7.84;100.00
33506;BME280;19843;51.040;13.782;2023-02-19T08:30:11;100252.84;;;7.59;99.76
33506;BME280;19843;51.040;13.782;2023-02-19T08:32:38;100267.13;;;7.26;99.71
33506;BME280;19843;51.040;13.782;2023-02-19T08:35:06;100279.16;;;7.17;99.20
33506;BME280;19843;51.040;13.782;2023-02-19T08:37:34;100291.41;;;7.04;98.62
33506;BME280;19843;51.040;13.782;2023-02-19T08:40:02;100298.22;;;7.09;98.15
33506;BME280;19843;51.040;13.782;2023-02-19T08:42:29;100303.53;;;6.94;98.77
33506;BME280;19843;51.040;13.782;2023-02-19T08:44:56;100296.06;;;7.00;98.21
33506;BME280;19843;51.040;13.782;2023-02-19T08:47:24;100304.25;;;6.97;98.77
33506;BME280;19843;51.040;13.782;2023-02-19T08:49:51;100321.91;;;6.82;97.99
33506;BME280;19843;51.040;13.782;2023-02-19T08:52:18;100335.41;;;6.62;99.22
33506;BME280;19843;51.040;13.782;2023-02-19T08:54:47;100341.50;;;6.46;100.00
33506;BME280;19843;51.040;13.782;2023-02-19T08:57:15;100351.16;;;6.32;99.33
33506;BME280;19843;51.040;13.782;2023-02-19T08:59:42;100357.97;;;6.37;100.00
33506;BME280;19843;51.040;13.782;2023-02-19T09:02:09;100377.06;;;6.28;100.00
33506;BME280;19843;51.040;13.782;2023-02-19T09:04:37;100385.78;;;6.32;99.99
33506;BME280;19843;51.040;13.782;2023-02-19T09:07:05;100389.72;;;5.86;99.04
33506;BME280;19843;51.040;13.782;2023-02-19T09:09:36;100399.94;;;5.96;100.00
33506;BME280;19843;51.040;13.782;2023-02-19T09:12:05;100409.63;;;5.97;100.00
33506;BME280;19843;51.040;13.782;2023-02-19T09:14:32;100418.34;;;6.00;100.00
33506;BME280;19843;51.040;13.782;2023-02-19T09:17:00;100419.03;;;6.04;99.62
33506;BME280;19843;51.040;13.782;2023-02-19T09:19:28;100432.75;;;5.96;99.92
33506;BME280;19843;51.040;13.782;2023-02-19T09:21:56;100441.28;;;5.84;99.58
33506;BME280;19843;51.040;13.782;2023-02-19T09:24:23;100446.72;;;5.81;99.14
33506;BME280;19843;51.040;13.782;2023-02-19T09:26:51;100444.28;;;5.57;97.92
33506;BME280;19843;51.040;13.782;2023-02-19T09:29:20;100452.63;;;5.69;100.00
33506;BME280;19843;51.040;13.782;2023-02-19T09:31:48;100467.25;;;5.58;98.68
33506;BME280;19843;51.040;13.782;2023-02-19T09:34:16;100478.44;;;5.67;98.47
33506;BME280;19843;51.040;13.782;2023-02-19T09:36:43;100481.19;;;5.84;98.41
33506;BME280;19843;51.040;13.782;2023-02-19T09:39:10;100487.78;;;5.75;96.61
33506;BME280;19843;51.040;13.782;2023-02-19T09:41:42;100501.13;;;5.55;93.29
33506;BME280;19843;51.040;13.782;2023-02-19T09:44:12;100514.91;;;5.23;94.13
33506;BME280;19843;51.040;13.782;2023-02-19T09:46:42;100524.63;;;5.25;92.31
33506;BME280;19843;51.040;13.782;2023-02-19T09:49:12;100530.91;;;5.22;92.86
33506;BME280;19843;51.040;13.782;2023-02-19T09:51:41;100533.84;;;4.95;93.47
33506;BME280;19843;51.040;13.782;2023-02-19T09:54:11;100537.81;;;5.06;93.38
33506;BME280;19843;51.040;13.782;2023-02-19T09:56:40;100535.31;;;5.23;92.86
33506;BME280;19843;51.040;13.782;2023-02-19T09:59:08;100534.06;;;5.52;94.04
33506;BME280;19843;51.040;13.782;2023-02-19T10:01:43;100541.88;;;5.76;94.03
33506;BME280;19843;51.040;13.782;2023-02-19T10:04:11;100535.28;;;5.84;91.57
33506;BME280;19843;51.040;13.782;2023-02-19T10:06:38;100553.16;;;6.01;92.90
33506;BME280;19843;51.040;13.782;2023-02-19T10:09:11;100553.69;;;6.10;93.37
33506;BME280;19843;51.040;13.782;2023-02-19T10:11:39;100554.84;;;6.23;92.93
33506;BME280;19843;51.040;13.782;2023-02-19T10:15:29;100560.22;;;6.40;91.14
33506;BME280;19843;51.040;13.782;2023-02-19T10:17:57;100573.38;;;6.62;89.38
33506;BME280;19843;51.040;13.782;2023-02-19T10:20:26;100582.97;;;6.66;91.01
33506;BME280;19843;51.040;13.782;2023-02-19T10:22:59;100584.28;;;6.58;90.67
33506;BME280;19843;51.040;13.782;2023-02-19T10:25:27;100586.53;;;6.29;90.25
33506;BME280;19843;51.040;13.782;2023-02-19T10:27:57;100581.31;;;6.26;89.42
33506;BME280;19843;51.040;13.782;2023-02-19T10:30:28;100594.91;;;6.20;89.25
33506;BME280;19843;51.040;13.782;2023-02-19T10:33:02;100597.13;;;6.10;89.95
33506;BME280;19843;51.040;13.782;2023-02-19T10:35:34;100593.78;;;6.63;88.52
33506;BME280;19843;51.040;13.782;2023-02-19T10:38:03;100599.38;;;6.95;86.57
33506;BME280;19843;51.040;13.782;2023-02-19T10:40:33;100595.19;;;6.89;86.93
33506;BME280;19843;51.040;13.782;2023-02-19T10:43:03;100615.31;;;7.14;85.79
33506;BME280;19843;51.040;13.782;2023-02-19T10:45:37;100615.16;;;7.17;84.35
33506;BME280;19843;51.040;13.782;2023-02-19T10:48:20;100615.38;;;7.13;84.87
33506;BME280;19843;51.040;13.782;2023-02-19T10:50:51;100625.13;;;6.95;82.75
33506;BME280;19843;51.040;13.782;2023-02-19T10:53:23;100620.97;;;6.89;83.35
33506;BME280;19843;51.040;13.782;2023-02-19T10:56:06;100632.28;;;6.94;85.14
33506;BME280;19843;51.040;13.782;2023-02-19T10:58:34;100633.34;;;7.09;84.63
33506;BME280;19843;51.040;13.782;2023-02-19T11:01:13;100633.84;;;7.35;85.99
33506;BME280;19843;51.040;13.782;2023-02-19T11:03:41;100634.47;;;7.22;83.79
33506;BME280;19843;51.040;13.782;2023-02-19T11:06:10;100639.16;;;7.17;83.54
33506;BME280;19843;51.040;13.782;2023-02-19T11:08:46;100650.59;;;7.19;83.59
33506;BME280;19843;51.040;13.782;2023-02-19T11:11:23;100647.50;;;7.28;82.89
33506;BME280;19843;51.040;13.782;2023-02-19T11:13:53;100658.81;;;7.34;83.00
33506;BME280;19843;51.040;13.782;2023-02-19T11:16:23;100656.47;;;7.45;82.98
33506;BME280;19843;51.040;13.782;2023-02-19T11:18:54;100661.59;;;7.13;81.19
33506;BME280;19843;51.040;13.782;2023-02-19T11:21:24;100660.63;;;7.50;80.04
33506;BME280;19843;51.040;13.782;2023-02-19T11:23:53;100669.19;;;7.57;80.66
33506;BME280;19843;51.040;13.782;2023-02-19T11:26:23;100671.75;;;7.41;80.99
33506;BME280;19843;51.040;13.782;2023-02-19T11:28:54;100679.16;;;7.17;81.07
33506;BME280;19843;51.040;13.782;2023-02-19T11:31:25;100682.09;;;7.30;81.59
33506;BME280;19843;51.040;13.782;2023-02-19T11:33:55;100680.16;;;7.34;80.57
33506;BME280;19843;51.040;13.782;2023-02-19T11:36:26;100676.47;;;7.00;76.80
33506;BME280;19843;51.040;13.782;2023-02-19T11:38:57;100684.38;;;6.82;76.13
33506;BME280;19843;51.040;13.782;2023-02-19T11:41:43;100691.31;;;6.86;76.28
33506;BME280;19843;51.040;13.782;2023-02-19T11:44:25;100691.34;;;7.04;78.59
33506;BME280;19843;51.040;13.782;2023-02-19T11:47:10;100689.38;;;7.26;79.57
33506;BME280;19843;51.040;13.782;2023-02-19T11:49:49;100693.00;;;7.25;78.18
33506;BME280;19843;51.040;13.782;2023-02-19T11:52:29;100702.53;;;7.48;77.64
33506;BME280;19843;51.040;13.782;2023-02-19T11:55:08;100701.22;;;7.21;78.22
33506;BME280;19843;51.040;13.782;2023-02-19T11:57:42;100695.44;;;7.30;78.79
33506;BME280;19843;51.040;13.782;2023-02-19T12:00:28;100703.97;;;7.00;78.37
33506;BME280;19843;51.040;13.782;2023-02-19T12:03:15;100709.03;;;7.06;78.23
33506;BME280;19843;51.040;13.782;2023-02-19T12:06:04;100715.94;;;6.92;77.53
33506;BME280;19843;51.040;13.782;2023-02-19T12:08:54;100718.16;;;7.01;76.30
33506;BME280;19843;51.040;13.782;2023-02-19T12:11:48;100725.56;;;7.32;76.75
33506;BME280;19843;51.040;13.782;2023-02-19T12:14:43;100729.59;;;7.22;77.07
33506;BME280;19843;51.040;13.782;2023-02-19T12:17:20;100724.41;;;7.38;77.04
33506;BME280;19843;51.040;13.782;2023-02-19T12:20:02;100741.41;;;7.35;73.71
33506;BME280;19843;51.040;13.782;2023-02-19T12:22:39;100744.19;;;7.34;73.12
33506;BME280;19843;51.040;13.782;2023-02-19T12:25:32;100736.94;;;7.36;72.01
33506;BME280;19843;51.040;13.782;2023-02-19T12:28:16;100734.94;;;7.58;72.04
33506;BME280;19843;51.040;13.782;2023-02-19T12:30:59;100744.94;;;7.72;71.10
33506;BME280;19843;51.040;13.782;2023-02-19T12:33:48;100741.91;;;7.80;70.04
33506;BME280;19843;51.040;13.782;2023-02-19T12:36:26;100745.59;;;7.77;69.57
33506;BME280;19843;51.040;13.782;2023-02-19T12:39:00;100734.66;;;7.64;70.11
33506;BME280;19843;51.040;13.782;2023-02-19T12:41:41;100725.66;;;7.84;69.24
33506;BME280;19843;51.040;13.782;2023-02-19T12:44:14;100724.41;;;7.91;68.06
33506;BME280;19843;51.040;13.782;2023-02-19T12:46:47;100724.97;;;7.98;69.14
33506;BME280;19843;51.040;13.782;2023-02-19T12:49:18;100724.56;;;7.88;67.86
33506;BME280;19843;51.040;13.782;2023-02-19T12:51:55;100731.56;;;7.91;69.34
33506;BME280;19843;51.040;13.782;2023-02-19T12:54:26;100728.59;;;7.97;68.07
33506;BME280;19843;51.040;13.782;2023-02-19T12:56:59;100729.50;;;7.79;67.18
33506;BME280;19843;51.040;13.782;2023-02-19T12:59:31;100720.91;;;7.72;67.20
33506;BME280;19843;51.040;13.782;2023-02-19T13:02:03;100728.16;;;7.70;67.17
33506;BME280;19843;51.040;13.782;2023-02-19T13:04:38;100735.63;;;7.44;68.39
33506;BME280;19843;51.040;13.782;2023-02-19T13:07:12;100738.41;;;7.60;67.18
33506;BME280;19843;51.040;13.782;2023-02-19T13:09:46;100738.47;;;7.41;67.04